Time;durP1;ratioP1;P1;durP2;ratioP2;P2;SDS_P1;SDS_P2;PMS_P1;PMS_P2;Temp;Humidity;BMP_temperature;BMP_pressure;BME280_temperature;BME280_humidity;BME280_pressure;Samples;Min_cycle;Max_cycle;Signal;HPM_P1;HPM_P2
2023/09/18 00:02:01;;;;;;;1.00;0.63;;;9.00;99.90;;;;;;4912895;29;20058;-66
2023/09/18 00:04:28;;;;;;;2.45;1.05;;;9.00;99.90;;;;;;4911217;29;20063;-70
2023/09/18 00:06:55;;;;;;;2.15;0.75;;;8.90;99.90;;;;;;4909450;29;20071;-67
2023/09/18 00:09:22;;;;;;;2.03;0.80;;;8.90;99.90;;;;;;4911114;29;20064;-65
2023/09/18 00:11:49;;;;;;;1.60;0.90;;;8.90;99.90;;;;;;4908980;29;20048;-67
2023/09/18 00:14:16;;;;;;;1.42;0.68;;;8.90;99.90;;;;;;4910402;29;20056;-66
2023/09/18 00:16:43;;;;;;;3.13;1.10;;;8.90;99.90;;;;;;4911282;29;20083;-64
2023/09/18 00:19:24;;;;;;;2.88;1.20;;;8.90;99.90;;;;;;4908370;29;20138;-66
2023/09/18 00:21:52;;;;;;;1.77;1.10;;;8.90;99.90;;;;;;4909583;29;20103;-66
2023/09/18 00:24:19;;;;;;;2.60;1.42;;;8.90;99.90;;;;;;4910506;29;20050;-65
2023/09/18 00:26:47;;;;;;;3.50;1.83;;;8.90;99.90;;;;;;4910457;29;20063;-70
2023/09/18 00:29:14;;;;;;;2.70;0.80;;;8.90;99.90;;;;;;4908880;29;20134;-68
2023/09/18 00:31:42;;;;;;;2.40;1.00;;;8.90;99.90;;;;;;4911487;29;20044;-67
2023/09/18 00:34:09;;;;;;;0.88;0.60;;;8.90;99.90;;;;;;4906681;29;20044;-68
2023/09/18 00:36:36;;;;;;;1.17;0.88;;;8.90;99.90;;;;;;4908613;29;20168;-64
2023/09/18 00:39:04;;;;;;;2.03;0.80;;;8.90;99.90;;;;;;4893263;29;20136;-67
2023/09/18 00:41:30;;;;;;;5.05;1.38;;;8.90;99.90;;;;;;4909249;29;20491;-68
2023/09/18 00:43:57;;;;;;;4.05;1.10;;;8.90;99.90;;;;;;4908936;29;20432;-65
2023/09/18 00:46:26;;;;;;;1.70;0.95;;;8.90;99.90;;;;;;4907816;29;20052;-67
2023/09/18 00:48:54;;;;;;;3.28;0.82;;;8.90;99.90;;;;;;4909916;29;20107;-72
2023/09/18 00:51:21;;;;;;;3.22;0.77;;;8.90;99.90;;;;;;4909223;29;20047;-67
2023/09/18 00:53:48;;;;;;;2.45;1.40;;;8.90;99.90;;;;;;4910050;29;20143;-65
2023/09/18 00:56:16;;;;;;;1.88;0.70;;;8.90;99.90;;;;;;4909312;29;20052;-65
2023/09/18 00:58:45;;;;;;;1.60;0.88;;;8.90;99.90;;;;;;4907858;29;20052;-65
2023/09/18 01:01:18;;;;;;;1.45;1.00;;;8.90;99.90;;;;;;4907587;29;20053;-65
2023/09/18 01:03:45;;;;;;;1.80;0.70;;;8.90;99.90;;;;;;4905907;29;20077;-63
2023/09/18 01:06:12;;;;;;;1.92;1.13;;;8.90;99.90;;;;;;4909062;29;20108;-68
2023/09/18 01:08:38;;;;;;;1.23;0.80;;;8.90;99.90;;;;;;4909645;29;20048;-65
2023/09/18 01:11:36;;;;;;;1.80;0.85;;;8.90;99.90;;;;;;4909733;29;20455;-65
2023/09/18 01:14:11;;;;;;;1.40;0.90;;;8.90;99.90;;;;;;4894718;29;20076;-65
2023/09/18 01:16:50;;;;;;;8.77;1.25;;;8.90;99.90;;;;;;4909614;29;20040;-66
2023/09/18 01:19:37;;;;;;;1.50;0.50;;;8.90;99.90;;;;;;4907060;29;20044;-70
2023/09/18 01:22:09;;;;;;;2.03;0.68;;;8.90;99.90;;;;;;4907474;29;20056;-67
2023/09/18 01:24:38;;;;;;;1.65;1.10;;;8.90;99.90;;;;;;4902400;29;20052;-66
2023/09/18 01:27:09;;;;;;;3.10;0.90;;;8.90;99.90;;;;;;4909289;29;20447;-64
2023/09/18 01:29:36;;;;;;;2.38;1.00;;;8.90;99.90;;;;;;4907413;29;20760;-64
2023/09/18 01:32:03;;;;;;;0.55;0.55;;;8.80;99.90;;;;;;4909362;29;20058;-63
2023/09/18 01:34:33;;;;;;;3.17;1.00;;;8.80;99.90;;;;;;4909576;29;20066;-65
2023/09/18 01:37:00;;;;;;;3.95;0.82;;;8.70;99.90;;;;;;4912079;29;20047;-65
2023/09/18 01:39:31;;;;;;;4.85;1.30;;;8.70;99.90;;;;;;4909009;29;20396;-65
2023/09/18 01:42:02;;;;;;;;;;;8.70;99.90;;;;;;4907572;29;20467;-64
2023/09/18 01:44:29;;;;;;;2.10;1.52;;;8.70;99.90;;;;;;4911295;29;19934;-70
2023/09/18 01:46:58;;;;;;;2.20;0.90;;;8.60;99.90;;;;;;4908447;29;20050;-68
2023/09/18 01:49:39;;;;;;;1.15;1.05;;;8.60;99.90;;;;;;4908378;29;20052;-66
2023/09/18 01:52:08;;;;;;;1.15;0.70;;;8.60;99.90;;;;;;4891600;29;20529;-67
2023/09/18 01:54:36;;;;;;;4.25;1.27;;;8.60;99.90;;;;;;4909516;29;20291;-63
2023/09/18 01:57:04;;;;;;;2.22;1.23;;;8.60;99.90;;;;;;4908974;29;20127;-65
2023/09/18 01:59:31;;;;;;;1.63;0.70;;;8.60;99.90;;;;;;4908683;29;20115;-64
2023/09/18 02:01:59;;;;;;;4.45;1.38;;;8.60;99.90;;;;;;4907319;29;20550;-68
2023/09/18 02:04:27;;;;;;;1.48;0.98;;;8.60;99.90;;;;;;4908622;29;20412;-63
2023/09/18 02:07:14;;;;;;;2.78;1.10;;;8.60;99.90;;;;;;4887910;29;20044;-68
2023/09/18 02:09:41;;;;;;;2.83;1.20;;;8.60;99.90;;;;;;4907630;29;20730;-68
2023/09/18 02:12:08;;;;;;;4.68;1.42;;;8.60;99.90;;;;;;4905054;29;20100;-66
2023/09/18 02:14:35;;;;;;;2.50;1.00;;;8.60;99.90;;;;;;4907143;29;20469;-64
2023/09/18 02:17:02;;;;;;;2.42;0.70;;;8.60;99.90;;;;;;4904087;29;20126;-64
2023/09/18 02:19:29;;;;;;;1.90;1.38;;;8.60;99.90;;;;;;4909765;29;20051;-66
2023/09/18 02:21:57;;;;;;;1.70;1.15;;;8.60;99.90;;;;;;4907663;29;20051;-63
2023/09/18 02:24:24;;;;;;;2.92;0.82;;;8.60;99.90;;;;;;4908379;29;20076;-64
2023/09/18 02:26:53;;;;;;;3.53;0.80;;;8.60;99.90;;;;;;4901343;29;20048;-67
2023/09/18 02:29:20;;;;;;;1.70;0.93;;;8.60;99.90;;;;;;4909362;29;20479;-65
2023/09/18 02:31:47;;;;;;;3.78;0.73;;;8.60;99.90;;;;;;4907611;29;20127;-66
2023/09/18 02:34:14;;;;;;;3.60;0.95;;;8.60;99.90;;;;;;4906893;29;20036;-65
2023/09/18 02:36:41;;;;;;;0.70;0.68;;;8.60;99.90;;;;;;4910574;29;20131;-63
2023/09/18 02:39:08;;;;;;;2.92;0.95;;;8.60;99.90;;;;;;4908212;29;20048;-65
2023/09/18 02:41:35;;;;;;;1.67;0.75;;;8.60;99.90;;;;;;4907195;29;20052;-64
2023/09/18 02:44:04;;;;;;;2.50;1.17;;;8.60;99.90;;;;;;4911179;29;20048;-66
2023/09/18 02:46:31;;;;;;;1.33;0.50;;;8.60;99.90;;;;;;4912149;29;20054;-64
2023/09/18 02:48:58;;;;;;;1.38;0.95;;;8.60;99.90;;;;;;4910606;29;20051;-65
2023/09/18 02:51:25;;;;;;;2.05;1.13;;;8.60;99.90;;;;;;4909937;29;20076;-64
2023/09/18 02:53:52;;;;;;;3.05;0.85;;;8.60;99.90;;;;;;4913278;29;20057;-66
2023/09/18 02:56:19;;;;;;;3.78;0.82;;;8.60;99.90;;;;;;4895462;29;20075;-66
2023/09/18 02:58:46;;;;;;;2.28;0.75;;;8.60;99.90;;;;;;4894705;29;20447;-65
2023/09/18 03:01:12;;;;;;;7.93;1.25;;;8.60;99.90;;;;;;4908878;29;20059;-66
2023/09/18 03:03:41;;;;;;;2.25;0.93;;;8.60;99.90;;;;;;4908921;29;20527;-64
2023/09/18 03:06:09;;;;;;;1.70;0.52;;;8.60;99.90;;;;;;4909663;29;20052;-65
2023/09/18 03:08:36;;;;;;;1.27;0.70;;;8.70;99.90;;;;;;4890781;29;20450;-64
2023/09/18 03:11:12;;;;;;;1.58;1.45;;;8.60;99.90;;;;;;4896040;29;20455;-66
2023/09/18 03:13:45;;;;;;;5.10;1.23;;;8.60;99.90;;;;;;4892389;29;20143;-64
2023/09/18 03:16:12;;;;;;;1.75;1.05;;;8.70;99.90;;;;;;4915364;29;20051;-64
2023/09/18 03:18:40;;;;;;;1.08;0.77;;;8.70;99.90;;;;;;4922522;29;20044;-64
2023/09/18 03:21:07;;;;;;;1.52;0.47;;;8.80;99.90;;;;;;4908352;29;20052;-66
2023/09/18 03:23:34;;;;;;;2.22;1.15;;;8.80;99.90;;;;;;4911334;29;20159;-64
2023/09/18 03:26:01;;;;;;;1.23;0.70;;;8.80;99.90;;;;;;4910710;29;20103;-64
2023/09/18 03:28:28;;;;;;;1.25;0.80;;;8.90;99.90;;;;;;4911192;29;20056;-65
2023/09/18 03:30:56;;;;;;;2.55;1.00;;;8.90;99.90;;;;;;4892933;29;20060;-63
2023/09/18 03:33:24;;;;;;;2.08;0.98;;;8.90;99.90;;;;;;4908588;29;20047;-66
2023/09/18 03:35:54;;;;;;;1.77;0.77;;;8.90;99.90;;;;;;4911675;29;20127;-68
2023/09/18 03:38:24;;;;;;;1.58;0.60;;;8.90;99.90;;;;;;4924071;29;20481;-64
2023/09/18 03:40:52;;;;;;;1.83;0.80;;;8.90;99.90;;;;;;4922266;29;20423;-67
2023/09/18 03:43:19;;;;;;;2.30;0.90;;;9.00;99.90;;;;;;4900675;29;20463;-67
2023/09/18 03:45:47;;;;;;;4.15;1.95;;;8.90;99.90;;;;;;4894563;29;20055;-64
2023/09/18 03:48:14;;;;;;;1.25;0.82;;;9.00;99.90;;;;;;4895890;29;20055;-68
2023/09/18 03:50:41;;;;;;;0.88;0.57;;;9.00;99.90;;;;;;4920336;29;20486;-68
2023/09/18 03:53:09;;;;;;;2.08;0.70;;;9.00;99.90;;;;;;4907486;29;20044;-65
2023/09/18 03:55:37;;;;;;;2.67;2.10;;;9.00;99.90;;;;;;4909291;29;20070;-63
2023/09/18 03:58:05;;;;;;;2.65;0.85;;;9.00;99.90;;;;;;4909866;29;20043;-66
2023/09/18 04:00:32;;;;;;;1.10;0.90;;;9.00;99.90;;;;;;4894174;29;20064;-65
2023/09/18 04:02:59;;;;;;;0.73;0.52;;;9.10;99.90;;;;;;4909930;29;20044;-64
2023/09/18 04:05:27;;;;;;;2.13;0.82;;;9.10;99.90;;;;;;4902706;29;20053;-64
2023/09/18 04:07:55;;;;;;;3.58;1.25;;;9.10;99.90;;;;;;4909777;29;20573;-67
2023/09/18 04:10:22;;;;;;;0.82;0.82;;;9.20;99.90;;;;;;4908473;29;20154;-67
2023/09/18 04:12:51;;;;;;;0.65;0.40;;;9.20;99.90;;;;;;4907760;29;20044;-71
2023/09/18 04:15:20;;;;;;;2.95;0.90;;;9.20;99.90;;;;;;4908160;29;20053;-69
2023/09/18 04:17:48;;;;;;;2.05;0.93;;;9.30;99.90;;;;;;4913506;29;20048;-66
2023/09/18 04:20:15;;;;;;;0.95;0.47;;;9.30;99.90;;;;;;4912436;29;20080;-67
2023/09/18 04:22:44;;;;;;;3.50;0.60;;;9.40;99.90;;;;;;4908852;29;20048;-67
2023/09/18 04:25:12;;;;;;;1.23;0.40;;;9.30;99.90;;;;;;4907599;29;20040;-65
2023/09/18 04:27:39;;;;;;;2.20;1.35;;;9.40;99.90;;;;;;4894398;29;20407;-64
2023/09/18 04:30:09;;;;;;;0.68;0.50;;;9.40;99.90;;;;;;4923990;29;20052;-64
2023/09/18 04:32:37;;;;;;;2.50;0.90;;;9.40;99.90;;;;;;4891339;29;20048;-63
2023/09/18 04:35:06;;;;;;;1.08;0.60;;;9.40;99.90;;;;;;4902614;29;20051;-64
2023/09/18 04:37:37;;;;;;;3.03;0.95;;;9.40;99.90;;;;;;4909888;29;20164;-65
2023/09/18 04:40:09;;;;;;;3.15;0.70;;;9.40;99.90;;;;;;4895624;29;20154;-65
2023/09/18 04:42:43;;;;;;;1.60;0.70;;;9.40;99.90;;;;;;4921149;29;20445;-65
2023/09/18 04:45:10;;;;;;;2.15;0.65;;;9.40;99.90;;;;;;4909186;29;20040;-65
2023/09/18 04:47:37;;;;;;;1.67;0.60;;;9.40;99.90;;;;;;4906089;29;20406;-65
2023/09/18 04:50:09;;;;;;;0.95;0.40;;;9.40;99.90;;;;;;4906961;29;20123;-66
2023/09/18 04:52:43;;;;;;;3.88;0.82;;;9.50;99.90;;;;;;4891031;29;20053;-64
2023/09/18 04:55:14;;;;;;;2.05;1.20;;;9.50;99.90;;;;;;4919880;29;20875;-68
2023/09/18 04:57:41;;;;;;;5.47;0.70;;;9.50;99.90;;;;;;4908624;29;20056;-67
2023/09/18 05:00:09;;;;;;;2.72;0.82;;;9.60;99.90;;;;;;4906610;29;20063;-68
2023/09/18 05:02:44;;;;;;;1.88;0.80;;;9.60;99.90;;;;;;4909072;29;20048;-67
2023/09/18 05:05:13;;;;;;;2.92;0.40;;;9.60;99.90;;;;;;4908637;29;20471;-66
2023/09/18 05:07:40;;;;;;;0.85;0.60;;;9.70;99.90;;;;;;4906886;29;20048;-65
2023/09/18 05:10:07;;;;;;;2.35;0.52;;;9.70;99.90;;;;;;4907022;29;20115;-65
2023/09/18 05:12:34;;;;;;;1.80;0.50;;;9.80;99.90;;;;;;4905688;29;20438;-64
2023/09/18 05:15:01;;;;;;;1.92;0.82;;;9.90;99.90;;;;;;4909751;29;20044;-68
2023/09/18 05:17:42;;;;;;;2.03;0.60;;;9.90;99.90;;;;;;4908472;29;20170;-66
2023/09/18 05:20:15;;;;;;;2.30;0.70;;;9.90;99.90;;;;;;4908294;29;20044;-66
2023/09/18 05:22:43;;;;;;;5.15;0.77;;;10.00;99.90;;;;;;4909859;29;20090;-66
2023/09/18 05:25:11;;;;;;;2.53;0.40;;;10.00;99.90;;;;;;4908464;29;20072;-65
2023/09/18 05:27:44;;;;;;;2.08;0.90;;;10.10;99.90;;;;;;4907707;29;20044;-65
2023/09/18 05:30:15;;;;;;;4.70;1.40;;;10.10;99.90;;;;;;4908249;29;20358;-66
2023/09/18 05:32:44;;;;;;;1.27;0.40;;;10.20;99.90;;;;;;4909287;29;20406;-66
2023/09/18 05:35:12;;;;;;;9.18;2.42;;;10.20;99.90;;;;;;4909379;29;20051;-66
2023/09/18 05:37:43;;;;;;;3.30;0.77;;;10.20;99.90;;;;;;4907847;29;20194;-67
2023/09/18 05:40:12;;;;;;;2.60;0.93;;;10.40;99.90;;;;;;4906123;29;20048;-66
2023/09/18 05:42:44;;;;;;;2.85;1.05;;;10.40;99.90;;;;;;4907168;29;20055;-66
2023/09/18 05:45:13;;;;;;;2.80;0.65;;;10.50;99.90;;;;;;4909295;29;20459;-68
2023/09/18 05:47:40;;;;;;;3.78;0.80;;;10.60;99.90;;;;;;4905886;29;20056;-69
2023/09/18 05:50:17;;;;;;;1.17;0.50;;;10.60;99.90;;;;;;4910270;29;20590;-65
2023/09/18 05:52:51;;;;;;;4.10;1.10;;;10.70;99.90;;;;;;4905199;29;20494;-65
2023/09/18 05:55:18;;;;;;;2.38;0.40;;;10.80;99.90;;;;;;4909044;29;20134;-69
2023/09/18 05:57:45;;;;;;;2.55;0.80;;;10.90;99.90;;;;;;4906736;29;20071;-64
2023/09/18 06:00:12;;;;;;;0.75;0.52;;;11.00;99.90;;;;;;4908639;29;20064;-69
2023/09/18 06:02:40;;;;;;;1.70;0.68;;;11.10;99.90;;;;;;4909067;29;20048;-64
2023/09/18 06:05:11;;;;;;;1.30;0.80;;;11.20;99.90;;;;;;4909157;29;20577;-67
2023/09/18 06:07:38;;;;;;;2.67;1.23;;;11.30;99.90;;;;;;4907570;29;20087;-64
2023/09/18 06:10:06;;;;;;;1.92;0.60;;;11.40;99.90;;;;;;4908425;29;20056;-68
2023/09/18 06:12:32;;;;;;;4.10;0.73;;;11.50;99.90;;;;;;4889462;29;20392;-64
2023/09/18 06:14:59;;;;;;;2.97;0.60;;;11.60;99.90;;;;;;4907967;29;20095;-64
2023/09/18 06:17:26;;;;;;;3.10;0.90;;;11.80;99.90;;;;;;4909611;29;20052;-65
2023/09/18 06:19:53;;;;;;;2.55;0.40;;;11.80;99.90;;;;;;4912786;29;20054;-66
2023/09/18 06:22:20;;;;;;;1.70;0.60;;;11.90;99.90;;;;;;4911208;29;20092;-71
2023/09/18 06:24:47;;;;;;;1.05;0.52;;;12.00;99.90;;;;;;4911660;29;20107;-70
2023/09/18 06:27:14;;;;;;;3.50;0.68;;;12.10;99.90;;;;;;4909146;29;20052;-68
2023/09/18 06:29:42;;;;;;;1.10;0.50;;;12.10;99.90;;;;;;4911675;29;20127;-65
2023/09/18 06:32:09;;;;;;;3.15;0.50;;;12.30;99.90;;;;;;4909217;29;20052;-64
2023/09/18 06:34:36;;;;;;;1.00;0.75;;;12.40;99.90;;;;;;4912413;29;20048;-67
2023/09/18 06:37:06;;;;;;;2.00;0.60;;;12.40;99.90;;;;;;4908190;29;20115;-65
2023/09/18 06:39:32;;;;;;;2.95;0.88;;;12.50;99.90;;;;;;4910311;29;20059;-67
2023/09/18 06:41:59;;;;;;;1.10;0.75;;;12.50;99.90;;;;;;4908537;29;20044;-66
2023/09/18 06:44:26;;;;;;;0.57;0.50;;;12.60;99.90;;;;;;4910586;29;20055;-64
2023/09/18 06:46:53;;;;;;;0.88;0.50;;;12.60;99.90;;;;;;4911609;29;20637;-68
2023/09/18 06:49:20;;;;;;;1.30;0.70;;;12.70;99.90;;;;;;4910361;29;20549;-66
2023/09/18 06:51:47;;;;;;;1.67;1.50;;;12.70;99.90;;;;;;4909873;29;20404;-67
2023/09/18 06:54:15;;;;;;;3.80;1.13;;;12.80;99.90;;;;;;4911027;29;20060;-67
2023/09/18 06:56:44;;;;;;;1.13;0.60;;;12.90;99.90;;;;;;4903731;29;20079;-67
2023/09/18 06:59:11;;;;;;;4.60;1.90;;;12.90;99.90;;;;;;4914289;29;20099;-66
2023/09/18 07:01:40;;;;;;;3.28;0.70;;;13.00;99.90;;;;;;4911246;29;20293;-69
2023/09/18 07:04:07;;;;;;;2.17;1.23;;;13.10;99.90;;;;;;4909569;29;20052;-66
2023/09/18 07:06:34;;;;;;;3.40;0.73;;;13.10;99.90;;;;;;4910711;29;20143;-65
2023/09/18 07:09:04;;;;;;;3.53;1.30;;;13.20;99.90;;;;;;4911514;29;20162;-65
2023/09/18 07:11:30;;;;;;;5.03;0.80;;;13.30;99.90;;;;;;4912927;29;20115;-65
2023/09/18 07:13:57;;;;;;;4.03;0.60;;;13.40;99.90;;;;;;4910871;29;20056;-67
2023/09/18 07:16:24;;;;;;;3.75;1.30;;;13.50;99.90;;;;;;4909656;29;20479;-64
2023/09/18 07:18:51;;;;;;;4.38;0.70;;;13.50;99.90;;;;;;4915043;29;20580;-70
2023/09/18 07:21:19;;;;;;;3.67;0.98;;;13.60;99.90;;;;;;4909308;29;20494;-66
2023/09/18 07:23:47;;;;;;;2.70;0.70;;;13.70;99.90;;;;;;4912519;29;20067;-65
2023/09/18 07:26:14;;;;;;;6.18;0.70;;;13.80;99.90;;;;;;4912148;29;20615;-67
2023/09/18 07:28:44;;;;;;;2.75;0.88;;;14.00;99.90;;;;;;4910208;29;20044;-64
2023/09/18 07:31:12;;;;;;;1.23;0.90;;;14.00;99.90;;;;;;4913113;29;20668;-68
2023/09/18 07:33:39;;;;;;;4.03;1.05;;;14.10;99.90;;;;;;4910834;29;20048;-72
2023/09/18 07:36:06;;;;;;;2.45;1.30;;;14.30;99.90;;;;;;4911238;29;20546;-69
2023/09/18 07:38:33;;;;;;;2.28;0.88;;;14.40;99.90;;;;;;4909824;29;20056;-66
2023/09/18 07:41:00;;;;;;;1.42;0.80;;;14.40;99.90;;;;;;4909293;29;20527;-72
2023/09/18 07:43:27;;;;;;;2.05;0.93;;;14.50;99.90;;;;;;4911285;29;20075;-64
2023/09/18 07:45:54;;;;;;;2.22;1.10;;;14.60;99.90;;;;;;4909525;29;20503;-65
2023/09/18 07:48:24;;;;;;;9.27;1.88;;;14.60;99.90;;;;;;4912993;29;20494;-69
2023/09/18 07:50:51;;;;;;;3.08;1.20;;;14.80;99.90;;;;;;4910637;29;20055;-68
2023/09/18 07:53:18;;;;;;;1.35;0.90;;;14.90;99.90;;;;;;4911342;29;20139;-66
2023/09/18 07:55:48;;;;;;;2.50;0.88;;;14.90;99.90;;;;;;4910407;29;20337;-68
2023/09/18 07:58:16;;;;;;;2.15;0.90;;;15.00;99.90;;;;;;4912397;29;20494;-66
2023/09/18 08:00:43;;;;;;;5.68;1.35;;;15.20;99.90;;;;;;4894181;29;20119;-65
2023/09/18 08:03:10;;;;;;;2.63;1.52;;;15.20;99.90;;;;;;4911121;29;20483;-64
2023/09/18 08:05:37;;;;;;;1.40;0.45;;;15.30;99.90;;;;;;4908379;29;20339;-66
2023/09/18 08:08:05;;;;;;;0.98;0.60;;;15.40;99.90;;;;;;4909109;29;20051;-64
2023/09/18 08:10:32;;;;;;;3.30;0.70;;;15.60;99.90;;;;;;4909223;29;20060;-69
2023/09/18 08:12:59;;;;;;;3.33;1.35;;;15.60;99.90;;;;;;4910396;29;20411;-68
2023/09/18 08:15:27;;;;;;;2.00;0.88;;;15.70;99.90;;;;;;4910390;29;20329;-68
2023/09/18 08:17:54;;;;;;;1.88;1.10;;;15.60;99.90;;;;;;4910116;29;20051;-66
2023/09/18 08:20:21;;;;;;;1.65;0.80;;;15.70;99.90;;;;;;4908689;29;20561;-68
2023/09/18 08:22:49;;;;;;;5.43;2.05;;;15.70;99.90;;;;;;4910421;29;20104;-65
2023/09/18 08:25:16;;;;;;;1.23;0.60;;;15.70;99.90;;;;;;4910900;29;20040;-65
2023/09/18 08:27:43;;;;;;;1.77;0.75;;;15.70;99.90;;;;;;4909674;29;20079;-65
2023/09/18 08:30:12;;;;;;;1.52;0.60;;;15.70;99.90;;;;;;4909204;29;20048;-65
2023/09/18 08:32:41;;;;;;;5.10;0.93;;;15.70;99.90;;;;;;4909733;29;20494;-67
2023/09/18 08:35:09;;;;;;;1.42;0.75;;;15.70;99.90;;;;;;4908057;29;20106;-66
2023/09/18 08:37:36;;;;;;;4.55;0.55;;;15.70;99.90;;;;;;4908901;29;20055;-68
2023/09/18 08:40:09;;;;;;;1.00;0.60;;;15.80;99.90;;;;;;4907446;29;21178;-65
2023/09/18 08:42:47;;;;;;;4.57;1.00;;;15.90;99.90;;;;;;4909528;29;20052;-67
2023/09/18 08:45:27;;;;;;;0.75;0.75;;;15.90;99.90;;;;;;4910255;29;20055;-68
2023/09/18 08:47:55;;;;;;;5.57;0.80;;;16.00;99.90;;;;;;4908241;29;20087;-69
2023/09/18 08:50:25;;;;;;;2.35;0.70;;;16.10;99.90;;;;;;4911611;29;20052;-68
2023/09/18 08:52:52;;;;;;;2.40;0.77;;;16.10;99.90;;;;;;4908896;29;20055;-67
2023/09/18 08:55:20;;;;;;;2.03;1.17;;;16.20;99.90;;;;;;4909955;29;20131;-65
2023/09/18 08:57:48;;;;;;;2.22;0.60;;;16.20;99.90;;;;;;4909755;29;20557;-71
2023/09/18 09:00:18;;;;;;;2.78;0.70;;;16.30;99.90;;;;;;4911132;29;20103;-69
2023/09/18 09:02:48;;;;;;;3.40;0.73;;;16.40;99.90;;;;;;4902172;29;20127;-68
2023/09/18 09:05:15;;;;;;;2.95;0.70;;;16.40;99.90;;;;;;4907287;29;20040;-66
2023/09/18 09:07:43;;;;;;;3.20;0.70;;;16.40;99.90;;;;;;4911160;29;20048;-66
2023/09/18 09:10:10;;;;;;;1.55;1.17;;;16.50;99.90;;;;;;4909881;29;20098;-66
2023/09/18 09:12:58;;;;;;;4.10;0.95;;;16.50;99.90;;;;;;4908676;29;20075;-67
2023/09/18 09:15:28;;;;;;;1.08;0.70;;;16.60;99.90;;;;;;4908071;29;20044;-69
2023/09/18 09:18:06;;;;;;;2.83;1.15;;;16.70;99.90;;;;;;4906948;29;20050;-66
2023/09/18 09:20:35;;;;;;;1.67;1.52;;;16.70;99.90;;;;;;4907835;29;20474;-66
2023/09/18 09:23:04;;;;;;;3.58;0.88;;;16.80;99.90;;;;;;4909075;29;20043;-67
2023/09/18 09:25:33;;;;;;;2.17;0.70;;;16.80;99.90;;;;;;4909277;29;20415;-66
2023/09/18 09:28:03;;;;;;;4.80;1.45;;;16.80;99.90;;;;;;4908893;29;20096;-68
2023/09/18 09:30:33;;;;;;;5.90;1.70;;;16.90;99.90;;;;;;4908340;29;20048;-65
2023/09/18 09:33:02;;;;;;;5.15;2.03;;;16.90;99.90;;;;;;4906029;29;20134;-67
2023/09/18 09:35:33;;;;;;;5.05;1.40;;;17.00;99.90;;;;;;4909053;29;20044;-71
2023/09/18 09:38:06;;;;;;;1.67;1.20;;;17.10;99.90;;;;;;4909963;29;20058;-67
2023/09/18 09:40:37;;;;;;;5.90;1.80;;;17.20;99.90;;;;;;4904673;29;20052;-68
2023/09/18 09:43:08;;;;;;;2.90;1.20;;;17.10;99.90;;;;;;4907704;29;20099;-66
2023/09/18 09:45:35;;;;;;;1.23;0.60;;;17.20;99.90;;;;;;4910577;29;20107;-68
2023/09/18 09:48:05;;;;;;;2.88;1.05;;;17.20;99.90;;;;;;4908943;29;20411;-65
2023/09/18 09:50:45;;;;;;;2.75;1.17;;;17.40;99.90;;;;;;4908106;29;20127;-66
2023/09/18 09:53:13;;;;;;;5.37;1.57;;;17.40;99.90;;;;;;4907726;29;20044;-72
2023/09/18 09:55:41;;;;;;;1.80;1.45;;;17.50;99.90;;;;;;4905604;29;20294;-65
2023/09/18 09:58:10;;;;;;;3.65;1.42;;;17.50;99.90;;;;;;4906407;29;20048;-66
2023/09/18 10:00:49;;;;;;;2.60;0.77;;;17.60;99.90;;;;;;4907335;29;20103;-66
2023/09/18 10:03:20;;;;;;;2.58;1.35;;;17.70;99.90;;;;;;4908023;29;20055;-68
2023/09/18 10:05:51;;;;;;;2.40;1.00;;;17.70;99.90;;;;;;4906625;29;20062;-65
2023/09/18 10:08:23;;;;;;;1.42;1.00;;;17.80;99.90;;;;;;4907600;29;20067;-69
2023/09/18 10:10:52;;;;;;;2.38;1.05;;;17.90;99.90;;;;;;4908336;29;20063;-66
2023/09/18 10:13:25;;;;;;;3.78;1.38;;;17.80;99.90;;;;;;4908278;29;20052;-68
2023/09/18 10:15:53;;;;;;;4.60;0.82;;;17.80;99.90;;;;;;4908810;29;20890;-65
2023/09/18 10:18:35;;;;;;;1.85;1.70;;;17.80;99.90;;;;;;4907050;29;20048;-66
2023/09/18 10:21:31;;;;;;;1.10;0.63;;;17.90;99.90;;;;;;4907158;29;20402;-67
2023/09/18 10:24:25;;;;;;;1.42;1.27;;;17.90;99.90;;;;;;4898341;29;20096;-67
2023/09/18 10:27:04;;;;;;;2.50;0.90;;;18.00;99.90;;;;;;4906631;29;20048;-70
2023/09/18 10:29:34;;;;;;;1.60;0.90;;;18.00;99.90;;;;;;4907632;29;20558;-66
2023/09/18 10:32:07;;;;;;;3.05;1.23;;;18.00;99.90;;;;;;4887811;29;21180;-66
2023/09/18 10:34:35;;;;;;;1.55;1.00;;;18.00;99.90;;;;;;4909076;29;20126;-66
2023/09/18 10:37:06;;;;;;;3.30;1.00;;;18.10;99.90;;;;;;4919003;29;20403;-66
2023/09/18 10:39:39;;;;;;;1.90;1.20;;;18.20;99.90;;;;;;4892659;29;20437;-67
2023/09/18 10:42:08;;;;;;;0.70;0.52;;;18.20;99.90;;;;;;4906907;29;20100;-66
2023/09/18 10:44:36;;;;;;;4.65;1.92;;;18.30;99.90;;;;;;4910722;29;20044;-67
2023/09/18 10:47:06;;;;;;;3.17;0.70;;;18.40;99.90;;;;;;4907837;29;20059;-72
2023/09/18 10:49:35;;;;;;;2.97;0.60;;;18.40;99.90;;;;;;4907896;29;20052;-66
2023/09/18 10:52:03;;;;;;;1.83;0.50;;;18.50;99.90;;;;;;4909671;29;20040;-65
2023/09/18 10:54:31;;;;;;;2.05;0.90;;;18.50;99.90;;;;;;4908151;29;20074;-66
2023/09/18 10:56:59;;;;;;;3.08;1.05;;;18.60;99.90;;;;;;4907148;29;20044;-66
2023/09/18 10:59:28;;;;;;;3.08;1.25;;;18.70;99.90;;;;;;4907789;29;20054;-67
2023/09/18 11:01:55;;;;;;;3.47;0.82;;;18.70;99.90;;;;;;4902570;29;20103;-70
2023/09/18 11:04:23;;;;;;;6.72;0.93;;;18.70;99.90;;;;;;4910598;29;20057;-66
2023/09/18 11:06:53;;;;;;;1.85;1.17;;;18.80;99.90;;;;;;4912093;29;20044;-67
2023/09/18 11:09:22;;;;;;;0.80;0.60;;;18.70;99.90;;;;;;4911733;29;20052;-66
2023/09/18 11:12:02;;;;;;;2.65;0.82;;;18.70;99.90;;;;;;4908677;29;20482;-68
2023/09/18 11:14:43;;;;;;;;;;;18.80;99.90;;;;;;4909227;29;20502;-67
2023/09/18 11:17:34;;;;;;;2.78;0.65;;;18.80;99.90;;;;;;4909493;29;19934;-66
2023/09/18 11:20:11;;;;;;;1.30;0.70;;;18.80;99.90;;;;;;4909958;29;20087;-69
2023/09/18 11:22:40;;;;;;;2.00;1.10;;;18.80;99.90;;;;;;4911079;29;20475;-68
2023/09/18 11:25:29;;;;;;;1.70;1.20;;;18.80;99.90;;;;;;4910603;29;20083;-66
2023/09/18 11:27:57;;;;;;;2.92;1.35;;;18.90;99.90;;;;;;4911965;29;20563;-67
2023/09/18 11:30:24;;;;;;;1.92;1.48;;;18.90;99.90;;;;;;4909561;29;20079;-67
2023/09/18 11:32:52;;;;;;;2.88;1.50;;;19.00;99.90;;;;;;4908104;29;20048;-68
2023/09/18 11:35:19;;;;;;;2.65;0.90;;;19.00;99.90;;;;;;4911636;29;20090;-66
2023/09/18 11:37:47;;;;;;;2.72;1.00;;;19.10;99.90;;;;;;4910433;29;20056;-70
2023/09/18 11:40:33;;;;;;;5.22;1.35;;;19.20;99.90;;;;;;4911007;29;20102;-67
2023/09/18 11:43:22;;;;;;;1.58;1.27;;;19.30;99.90;;;;;;4911251;29;20462;-66
2023/09/18 11:45:50;;;;;;;2.88;1.20;;;19.40;99.90;;;;;;4909836;29;20048;-71
2023/09/18 11:48:18;;;;;;;2.22;1.20;;;19.30;99.90;;;;;;4908496;29;20418;-66
2023/09/18 11:50:48;;;;;;;5.43;2.90;;;19.20;99.90;;;;;;4912510;29;20492;-72
2023/09/18 11:53:18;;;;;;;1.05;0.90;;;19.20;99.90;;;;;;4908819;29;20063;-68
2023/09/18 11:55:45;;;;;;;2.15;0.95;;;19.40;99.90;;;;;;4910856;29;20117;-65
2023/09/18 11:58:13;;;;;;;2.50;1.20;;;19.50;99.90;;;;;;4911440;29;20479;-66
2023/09/18 12:00:46;;;;;;;2.13;1.23;;;19.60;99.90;;;;;;4909952;29;20780;-72
2023/09/18 12:03:27;;;;;;;1.10;1.00;;;19.80;99.90;;;;;;4907938;29;20040;-68
2023/09/18 12:05:57;;;;;;;1.27;1.02;;;19.80;99.90;;;;;;4910457;29;20075;-71
2023/09/18 12:08:28;;;;;;;3.58;1.50;;;19.70;99.90;;;;;;4907940;29;20715;-69
2023/09/18 12:10:55;;;;;;;3.35;1.50;;;19.60;99.90;;;;;;4911723;29;20047;-65
2023/09/18 12:13:25;;;;;;;2.08;1.58;;;19.60;99.90;;;;;;4908917;29;22021;-71
2023/09/18 12:16:06;;;;;;;1.85;1.60;;;19.60;99.90;;;;;;4909601;29;20044;-67
2023/09/18 12:18:38;;;;;;;1.88;1.65;;;19.50;99.90;;;;;;4908637;29;20040;-70
2023/09/18 12:21:08;;;;;;;5.95;2.97;;;19.30;99.90;;;;;;4904034;29;20202;-67
2023/09/18 12:23:43;;;;;;;3.42;1.88;;;19.20;99.90;;;;;;4911054;29;20048;-66
2023/09/18 12:26:13;;;;;;;3.97;2.38;;;19.10;99.90;;;;;;4908484;29;20044;-68
2023/09/18 12:28:41;;;;;;;4.28;1.25;;;19.10;99.90;;;;;;4908294;29;20055;-66
2023/09/18 12:31:12;;;;;;;4.68;1.75;;;19.10;99.90;;;;;;4910168;29;20325;-68
2023/09/18 12:33:41;;;;;;;2.17;1.42;;;19.10;99.90;;;;;;4907463;29;20407;-64
2023/09/18 12:36:08;;;;;;;4.10;2.10;;;19.10;99.90;;;;;;4906710;29;20047;-65
2023/09/18 12:38:36;;;;;;;2.08;1.83;;;19.00;99.90;;;;;;4910098;29;21039;-64
2023/09/18 12:41:08;;;;;;;3.70;1.77;;;18.90;99.90;;;;;;4910483;29;20140;-65
2023/09/18 12:43:41;;;;;;;4.68;2.05;;;19.00;99.90;;;;;;4909221;29;20503;-67
2023/09/18 12:46:08;;;;;;;2.40;1.77;;;18.90;99.90;;;;;;4909417;29;20071;-68
2023/09/18 12:48:46;;;;;;;3.38;1.90;;;18.90;99.90;;;;;;4909988;29;20111;-65
2023/09/18 12:51:14;;;;;;;2.10;1.88;;;18.80;99.90;;;;;;4908576;29;20048;-65
2023/09/18 12:53:41;;;;;;;4.60;2.53;;;18.90;99.90;;;;;;4910104;29;20048;-65
2023/09/18 12:56:13;;;;;;;2.13;1.95;;;18.90;99.90;;;;;;4913164;29;20075;-68
2023/09/18 12:58:41;;;;;;;3.83;2.45;;;18.80;99.90;;;;;;4907319;29;20104;-66
2023/09/18 13:01:28;;;;;;;5.03;2.47;;;18.80;99.90;;;;;;4909168;29;20056;-67
2023/09/18 13:03:55;;;;;;;3.60;2.55;;;18.80;99.90;;;;;;4908937;29;20052;-66